Time;durP1;ratioP1;P1;durP2;ratioP2;P2;SDS_P1;SDS_P2;PMS_P1;PMS_P2;Temp;Humidity;BMP_temperature;BMP_pressure;BME280_temperature;BME280_humidity;BME280_pressure;Samples;Min_cycle;Max_cycle;Signal;HPM_P1;HPM_P2
2021/10/01 00:02:17;;;;;;;13.90;8.45;;;;;;;23.73;42.69;95850.84;5351262;22;20065;-72
2021/10/01 00:04:42;;;;;;;12.18;7.70;;;;;;;23.78;42.56;95863.72;4982584;28;20077;-73
2021/10/01 00:07:09;;;;;;;11.00;7.47;;;;;;;23.65;42.63;95844.38;4986789;28;20030;-73
2021/10/01 00:09:35;;;;;;;10.95;7.20;;;;;;;23.75;42.62;95853.81;4984802;28;20034;-73
2021/10/01 00:12:00;;;;;;;14.07;8.15;;;;;;;23.73;42.76;95857.03;4986673;28;20026;-73
2021/10/01 00:14:26;;;;;;;11.90;7.82;;;;;;;23.74;43.00;95846.88;4986273;28;20526;-73
2021/10/01 00:16:52;;;;;;;12.65;7.70;;;;;;;23.75;42.53;95848.34;4986311;28;20021;-73
2021/10/01 00:19:17;;;;;;;11.90;7.68;;;;;;;23.74;42.54;95846.88;4985004;28;20041;-73
2021/10/01 00:21:43;;;;;;;11.27;7.35;;;;;;;23.74;42.83;95846.88;4986317;28;20026;-73
2021/10/01 00:24:08;;;;;;;12.57;7.70;;;;;;;23.73;42.54;95851.56;4985778;28;20027;-71
2021/10/01 00:26:35;;;;;;;9.57;6.85;;;;;;;23.74;42.68;95846.88;4985628;28;20049;-71
2021/10/01 00:29:01;;;;;;;12.38;7.90;;;;;;;23.72;43.00;95849.34;4985354;28;20088;-71
2021/10/01 00:31:26;;;;;;;10.90;7.63;;;;;;;23.71;42.72;95848.59;4985668;28;20455;-71
2021/10/01 00:33:52;;;;;;;10.82;7.10;;;;;;;23.60;42.64;95831.41;4985521;28;20519;-71
2021/10/01 00:36:18;;;;;;;9.52;7.15;;;;;;;23.72;42.73;95849.34;4985096;28;20080;-71
2021/10/01 00:38:43;;;;;;;11.38;7.30;;;;;;;23.70;43.21;95835.44;4985467;28;20027;-71
2021/10/01 00:41:09;;;;;;;11.70;7.28;;;;;;;23.70;43.02;95849.81;4985093;28;20022;-71
2021/10/01 00:43:34;;;;;;;11.75;6.65;;;;;;;23.69;42.95;95840.16;4985536;28;20456;-71
2021/10/01 00:45:59;;;;;;;12.10;7.55;;;;;;;23.70;43.02;95846.34;4985843;28;20061;-71
2021/10/01 00:48:25;;;;;;;10.32;6.82;;;;;;;23.70;42.70;95846.34;4989336;28;20037;-71
2021/10/01 00:50:50;;;;;;;11.18;7.05;;;;;;;23.70;42.96;95835.44;4988558;28;20018;-71
2021/10/01 00:53:16;;;;;;;10.50;6.50;;;;;;;23.68;42.60;95843.38;4989549;28;20030;-70
2021/10/01 00:55:42;;;;;;;11.00;6.78;;;;;;;23.54;42.97;95827.91;4984588;28;20042;-72
2021/10/01 00:58:07;;;;;;;10.80;6.97;;;;;;;23.68;43.00;95837.94;4969038;28;20031;-72
2021/10/01 01:00:32;;;;;;;10.23;6.57;;;;;;;23.67;42.65;95848.06;4969840;28;20412;-71
2021/10/01 01:02:59;;;;;;;10.73;6.68;;;;;;;23.67;42.64;95847.34;4975750;28;20058;-72
2021/10/01 01:05:49;;;;;;;10.48;6.82;;;;;;;23.67;43.05;95841.88;4984519;28;20019;-71
2021/10/01 01:08:16;;;;;;;9.48;6.38;;;;;;;23.68;42.91;95854.28;4987653;28;20072;-71
2021/10/01 01:11:10;;;;;;;8.88;6.10;;;;;;;23.65;42.78;95838.91;4978000;28;20488;-71
2021/10/01 01:13:57;;;;;;;10.10;6.35;;;;;;;23.64;42.88;95837.41;5007622;28;20069;-70
2021/10/01 01:16:24;;;;;;;10.98;6.85;;;;;;;23.59;42.73;95824.50;4987028;28;20057;-71
2021/10/01 01:18:51;;;;;;;10.48;6.38;;;;;;;23.63;43.16;95841.34;4972231;28;20798;-71
2021/10/01 01:21:42;;;;;;;8.63;6.22;;;;;;;23.64;42.89;95837.41;4987981;28;20037;-71
2021/10/01 01:24:39;;;;;;;10.02;6.30;;;;;;;23.63;43.19;95835.88;4988174;28;20041;-71
2021/10/01 01:27:37;;;;;;;10.63;6.65;;;;;;;23.63;42.95;95835.88;4967972;28;20049;-71
2021/10/01 01:30:11;;;;;;;9.20;6.30;;;;;;;23.61;43.23;95838.38;4974496;28;20108;-71
2021/10/01 01:32:39;;;;;;;9.60;5.72;;;;;;;23.59;43.19;95835.41;4972342;28;20113;-71
2021/10/01 01:35:18;;;;;;;9.88;6.07;;;;;;;23.59;43.08;95829.94;4988492;28;20416;-72
2021/10/01 01:37:45;;;;;;;8.98;6.00;;;;;;;23.60;43.29;95825.97;4992514;28;20113;-71
2021/10/01 01:40:11;;;;;;;8.30;5.57;;;;;;;23.60;43.33;95831.41;4998771;28;20033;-71
2021/10/01 01:42:37;;;;;;;8.50;5.88;;;;;;;23.53;43.28;95826.44;5007191;28;20038;-70
2021/10/01 01:45:03;;;;;;;7.85;5.78;;;;;;;23.41;43.24;95803.84;4996651;28;20121;-70
2021/10/01 01:47:29;;;;;;;9.23;5.72;;;;;;;23.54;43.11;95822.47;4972397;28;20113;-70
2021/10/01 01:49:54;;;;;;;8.07;5.60;;;;;;;23.58;42.97;95823.72;4987635;28;20037;-71
2021/10/01 01:52:20;;;;;;;9.32;6.18;;;;;;;23.57;43.07;95826.94;4987216;28;20617;-71
2021/10/01 01:54:45;;;;;;;8.60;5.90;;;;;;;23.54;42.93;95822.47;4970962;28;20034;-71
2021/10/01 01:57:11;;;;;;;9.00;5.47;;;;;;;23.45;42.92;95809.06;4987041;28;20504;-71
2021/10/01 01:59:36;;;;;;;8.10;5.03;;;;;;;23.57;43.06;95821.47;4987548;28;20046;-72
2021/10/01 02:02:02;;;;;;;8.02;5.40;;;;;;;23.57;43.17;95826.94;4987085;28;20063;-71
2021/10/01 02:04:27;;;;;;;8.23;5.43;;;;;;;23.55;43.25;95823.97;4987255;28;20054;-71
2021/10/01 02:06:53;;;;;;;8.07;5.18;;;;;;;23.56;43.45;95831.66;4983785;28;20112;-71
2021/10/01 02:09:19;;;;;;;8.15;5.30;;;;;;;23.57;43.17;95837.84;4967559;28;20037;-71
2021/10/01 02:11:44;;;;;;;9.70;5.93;;;;;;;23.57;43.38;95832.38;4967428;28;20089;-72
2021/10/01 02:14:10;;;;;;;11.73;6.53;;;;;;;23.51;43.47;95834.34;4967826;28;20065;-71
2021/10/01 02:16:36;;;;;;;7.25;5.13;;;;;;;23.57;43.27;95832.38;4967538;28;20038;-71
2021/10/01 02:19:01;;;;;;;9.02;5.53;;;;;;;23.57;42.91;95837.84;4967236;28;20034;-72
2021/10/01 02:21:27;;;;;;;8.90;5.53;;;;;;;23.42;43.18;95799.88;4967318;28;20027;-72
2021/10/01 02:23:52;;;;;;;7.38;5.10;;;;;;;23.54;43.46;95827.91;4967391;28;20030;-72
2021/10/01 02:26:36;;;;;;;8.93;5.38;;;;;;;23.54;43.24;95833.38;4968806;28;20027;-72
2021/10/01 02:29:10;;;;;;;7.20;4.90;;;;;;;23.53;43.15;95829.19;4968597;28;20035;-71
2021/10/01 02:31:45;;;;;;;8.10;5.18;;;;;;;23.54;43.46;95833.38;4967192;28;20085;-71
2021/10/01 02:34:10;;;;;;;8.38;5.10;;;;;;;23.52;43.35;95830.41;4967435;28;20037;-72
2021/10/01 02:36:36;;;;;;;6.88;4.70;;;;;;;23.51;43.54;95828.91;4966936;28;20113;-72
2021/10/01 02:39:01;;;;;;;7.57;5.10;;;;;;;23.51;43.54;95828.91;4968501;28;20031;-72
2021/10/01 02:41:27;;;;;;;7.00;5.03;;;;;;;23.34;43.44;95803.56;4966946;28;20437;-71
2021/10/01 02:43:52;;;;;;;8.18;4.82;;;;;;;23.53;43.04;95826.44;4968122;28;20416;-71
2021/10/01 02:46:17;;;;;;;8.70;4.80;;;;;;;23.53;43.44;95837.34;4968319;28;20497;-72
2021/10/01 02:48:43;;;;;;;6.28;4.57;;;;;;;23.54;43.22;95839.59;4966992;28;20034;-72
2021/10/01 02:51:16;;;;;;;6.97;4.50;;;;;;;23.53;42.84;95831.91;4969408;28;20039;-72
2021/10/01 02:54:06;;;;;;;6.32;4.50;;;;;;;23.52;43.35;95824.94;4983747;28;20058;-72
2021/10/01 02:56:35;;;;;;;6.57;4.95;;;;;;;23.39;43.32;95821.91;4970311;28;20073;-72
2021/10/01 02:59:02;;;;;;;7.05;4.68;;;;;;;23.37;43.49;95825.13;4970436;28;20436;-72
2021/10/01 03:01:28;;;;;;;7.60;5.20;;;;;;;23.51;43.61;95828.91;4987552;28;20584;-72
2021/10/01 03:03:56;;;;;;;6.40;4.40;;;;;;;23.50;43.37;95838.34;4984997;28;20042;-72
2021/10/01 03:06:21;;;;;;;7.32;4.70;;;;;;;23.51;43.11;95828.91;4985741;28;20053;-71
2021/10/01 03:08:48;;;;;;;7.00;5.20;;;;;;;23.51;43.26;95834.34;4985378;28;20026;-71
2021/10/01 03:11:14;;;;;;;7.63;4.70;;;;;;;23.50;43.17;95838.34;4986773;28;20026;-72
2021/10/01 03:13:42;;;;;;;7.15;4.72;;;;;;;23.50;43.68;95838.34;4986027;28;20421;-71
2021/10/01 03:16:07;;;;;;;7.20;4.50;;;;;;;23.38;43.20;95826.63;4969237;28;20088;-72
2021/10/01 03:18:32;;;;;;;6.90;4.93;;;;;;;23.51;43.61;95839.81;4986388;28;20034;-71
2021/10/01 03:20:58;;;;;;;7.38;4.93;;;;;;;23.39;43.28;95821.91;4977373;28;20034;-71
2021/10/01 03:23:23;;;;;;;6.55;4.28;;;;;;;23.50;43.34;95830.16;4986341;28;20033;-71
2021/10/01 03:25:49;;;;;;;7.10;4.40;;;;;;;23.52;43.41;95846.75;4988024;28;20038;-71
2021/10/01 03:28:15;;;;;;;7.72;4.93;;;;;;;23.35;43.46;95826.88;4991228;28;20022;-71
2021/10/01 03:30:41;;;;;;;5.88;4.20;;;;;;;23.49;43.04;95825.94;4991256;28;20026;-71
2021/10/01 03:33:06;;;;;;;7.35;4.60;;;;;;;23.49;43.50;95831.38;4989537;28;20045;-71
2021/10/01 03:35:32;;;;;;;7.60;4.57;;;;;;;23.44;43.33;95829.38;4989172;28;20144;-71
2021/10/01 03:37:57;;;;;;;6.90;4.57;;;;;;;23.50;43.10;95832.88;4987955;28;20132;-73
2021/10/01 03:40:23;;;;;;;6.25;4.25;;;;;;;23.31;43.45;95810.00;4985148;28;20034;-71
2021/10/01 03:42:49;;;;;;;6.57;4.15;;;;;;;23.47;43.49;95829.16;4989716;28;20412;-71
2021/10/01 03:45:14;;;;;;;6.57;4.50;;;;;;;23.48;43.41;95835.34;4987353;28;20045;-72
2021/10/01 03:47:39;;;;;;;6.05;4.28;;;;;;;23.48;43.75;95829.88;4987098;28;20963;-72
2021/10/01 03:50:05;;;;;;;7.57;4.78;;;;;;;23.51;43.73;95823.44;4985458;28;20034;-74
2021/10/01 03:52:32;;;;;;;7.68;4.70;;;;;;;23.44;43.62;95819.22;4984226;28;20029;-73
2021/10/01 03:54:58;;;;;;;6.35;4.07;;;;;;;23.52;43.22;95825.69;4980830;28;20034;-76
2021/10/01 03:57:23;;;;;;;6.82;4.60;;;;;;;23.52;43.41;95835.84;4988330;28;20026;-76
2021/10/01 03:59:48;;;;;;;7.95;4.63;;;;;;;23.50;43.30;95832.88;4985551;28;20022;-76
2021/10/01 04:02:14;;;;;;;6.57;4.43;;;;;;;23.49;43.55;95832.13;4987332;28;20029;-74
2021/10/01 04:04:39;;;;;;;7.72;4.60;;;;;;;23.49;43.40;95820.47;4986245;28;20360;-76
2021/10/01 04:07:05;;;;;;;5.20;3.80;;;;;;;23.45;43.35;95825.41;4985405;28;20022;-77
2021/10/01 04:09:30;;;;;;;8.27;5.45;;;;;;;23.50;43.34;95832.88;4985891;28;20019;-78
2021/10/01 04:11:57;;;;;;;7.35;4.82;;;;;;;23.49;43.81;95831.38;4981331;28;20054;-78
2021/10/01 04:14:22;;;;;;;6.82;4.72;;;;;;;23.38;43.82;95809.53;4983987;28;20109;-77
2021/10/01 04:16:48;;;;;;;7.28;4.85;;;;;;;23.49;43.63;95831.38;4984202;28;20029;-76
2021/10/01 04:19:13;;;;;;;8.75;4.35;;;;;;;23.48;43.88;95824.44;4984601;28;20022;-77
2021/10/01 04:21:39;;;;;;;6.03;4.47;;;;;;;23.49;43.48;95831.38;4985827;28;20052;-77
2021/10/01 04:24:04;;;;;;;7.78;4.65;;;;;;;23.34;43.33;95802.81;4986742;28;20049;-77
2021/10/01 04:26:30;;;;;;;7.88;4.53;;;;;;;23.45;43.65;95819.97;4977564;28;20109;-75
2021/10/01 04:28:55;;;;;;;7.60;4.43;;;;;;;23.52;43.56;95835.84;4983328;28;20493;-76
2021/10/01 04:31:21;;;;;;;6.70;4.22;;;;;;;23.51;43.33;95839.81;4992315;28;20077;-75
2021/10/01 04:33:46;;;;;;;6.65;4.25;;;;;;;23.51;43.63;95834.34;5001500;28;20023;-74
2021/10/01 04:36:12;;;;;;;6.68;4.45;;;;;;;23.41;43.26;95819.47;4999523;28;20022;-74
2021/10/01 04:38:38;;;;;;;5.30;4.20;;;;;;;23.56;43.46;95847.28;5001489;28;20049;-73
2021/10/01 04:41:04;;;;;;;7.47;4.30;;;;;;;23.61;43.27;95838.38;4996819;28;20022;-70
2021/10/01 04:43:29;;;;;;;6.88;3.92;;;;;;;23.66;43.18;95840.38;4968927;28;20031;-74
2021/10/01 04:45:56;;;;;;;5.40;3.92;;;;;;;23.67;43.45;95837.16;4983089;28;20031;-75
2021/10/01 04:48:21;;;;;;;6.50;4.18;;;;;;;23.74;43.29;95841.44;4989126;28;20416;-74
2021/10/01 04:50:47;;;;;;;8.88;4.38;;;;;;;23.82;43.70;95847.88;4984693;28;20027;-75
2021/10/01 04:53:12;;;;;;;7.82;4.75;;;;;;;23.86;43.62;95842.94;4986895;28;20495;-75
2021/10/01 04:55:38;;;;;;;7.47;4.22;;;;;;;23.99;44.62;95852.88;4988294;28;20042;-74
2021/10/01 04:58:04;;;;;;;8.02;4.30;;;;;;;24.08;44.35;95855.38;4986780;28;20490;-75
2021/10/01 05:00:29;;;;;;;7.78;4.35;;;;;;;24.15;44.50;95848.69;4987624;28;20060;-74
2021/10/01 05:02:55;;;;;;;7.70;4.93;;;;;;;24.23;43.12;95855.91;4987235;28;20057;-74
2021/10/01 05:05:20;;;;;;;6.05;3.88;;;;;;;24.30;43.74;95860.13;4983049;28;20027;-74
2021/10/01 05:07:46;;;;;;;6.57;4.10;;;;;;;24.41;43.55;95871.84;4975338;28;20578;-73
2021/10/01 05:10:12;;;;;;;7.32;4.40;;;;;;;24.49;43.65;95878.31;4973621;28;20019;-74
2021/10/01 05:12:38;;;;;;;8.25;4.60;;;;;;;24.59;43.63;95871.38;4984114;28;20080;-72
2021/10/01 05:15:04;;;;;;;6.30;3.90;;;;;;;24.67;44.38;95889.47;4983855;28;20091;-74
2021/10/01 05:17:30;;;;;;;10.07;4.78;;;;;;;24.78;43.78;95878.53;4985581;28;20022;-74
2021/10/01 05:19:55;;;;;;;6.38;4.45;;;;;;;24.69;43.34;95848.00;4986018;28;20547;-73
2021/10/01 05:22:21;;;;;;;10.45;4.10;;;;;;;24.89;42.81;95873.81;4988394;28;20022;-73
2021/10/01 05:24:46;;;;;;;9.45;4.20;;;;;;;24.96;42.78;95878.78;4986881;28;20026;-74
2021/10/01 05:27:12;;;;;;;7.75;4.10;;;;;;;25.00;41.96;95879.28;4983976;28;20019;-75
2021/10/01 05:29:38;;;;;;;8.75;3.78;;;;;;;25.09;42.20;95881.75;4978875;28;20023;-73
2021/10/01 05:32:04;;;;;;;6.60;4.25;;;;;;;25.15;41.85;95879.78;4984442;28;20034;-75
2021/10/01 05:34:29;;;;;;;6.20;3.45;;;;;;;25.22;41.44;95884.75;4985202;28;20037;-76
2021/10/01 05:36:55;;;;;;;5.68;3.53;;;;;;;25.27;41.19;95875.75;4987555;28;20499;-77
2021/10/01 05:39:21;;;;;;;7.78;4.32;;;;;;;25.18;41.02;95867.84;4984212;28;20034;-79
2021/10/01 05:41:46;;;;;;;6.68;3.40;;;;;;;25.36;40.51;95889.16;4987745;28;20026;-79
2021/10/01 05:44:11;;;;;;;5.75;3.58;;;;;;;25.38;40.77;95881.19;4987579;28;20076;-79
2021/10/01 05:46:42;;;;;;;6.32;3.40;;;;;;;25.40;40.58;95884.19;4985342;28;20027;-78
2021/10/01 05:49:10;;;;;;;6.97;3.30;;;;;;;25.42;40.60;95882.44;4986037;28;20034;-76
2021/10/01 05:51:40;;;;;;;6.05;3.50;;;;;;;25.45;40.32;95886.16;4983995;28;20680;-75
2021/10/01 05:56:33;;;;;;;5.85;3.30;;;;;;;25.48;40.24;95890.63;4984857;28;20102;-76
2021/10/01 05:58:59;;;;;;;7.38;3.70;;;;;;;25.52;39.90;95896.59;4969388;28;20027;-76
2021/10/01 06:01:24;;;;;;;5.88;3.30;;;;;;;25.57;39.42;95898.56;4986325;28;20034;-74
2021/10/01 06:03:51;;;;;;;5.53;3.47;;;;;;;25.56;39.43;95892.34;4985945;28;20061;-75
2021/10/01 06:06:19;;;;;;;6.82;3.17;;;;;;;25.63;39.33;95897.28;4987565;28;20129;-76
2021/10/01 06:08:48;;;;;;;7.18;3.78;;;;;;;25.56;39.76;95870.47;4988497;28;20030;-77
2021/10/01 06:11:14;;;;;;;6.07;3.67;;;;;;;25.67;39.09;95886.88;4972783;28;20034;-74
2021/10/01 06:13:39;;;;;;;7.60;3.50;;;;;;;25.65;39.36;95905.03;4967393;28;20097;-74
2021/10/01 06:16:05;;;;;;;5.47;3.08;;;;;;;25.60;39.26;95881.13;4968469;28;20026;-75
2021/10/01 06:18:30;;;;;;;6.38;3.15;;;;;;;25.72;39.00;95899.03;4987205;28;20061;-76
2021/10/01 06:20:56;;;;;;;6.80;3.10;;;;;;;25.73;38.89;95906.75;4986229;28;20022;-75
2021/10/01 06:23:22;;;;;;;8.48;3.20;;;;;;;25.79;39.11;95904.00;4984534;28;20029;-81
2021/10/01 06:25:48;;;;;;;5.70;3.33;;;;;;;25.79;39.68;95905.47;4979084;28;20081;-72
2021/10/01 06:28:13;;;;;;;8.77;3.38;;;;;;;25.62;39.37;95886.84;4981862;28;20447;-73
2021/10/01 06:30:39;;;;;;;6.85;3.00;;;;;;;25.81;39.01;95907.69;4979596;28;20031;-73
2021/10/01 06:33:05;;;;;;;6.95;3.15;;;;;;;25.86;38.97;95904.94;4975035;28;20077;-73
2021/10/01 06:35:31;;;;;;;6.22;3.05;;;;;;;25.87;39.36;95911.16;4979267;28;20045;-72
2021/10/01 06:37:56;;;;;;;7.10;3.38;;;;;;;25.86;39.43;95909.69;4988528;28;20018;-72
2021/10/01 06:40:22;;;;;;;5.88;3.25;;;;;;;25.87;39.37;95916.63;4987489;28;20022;-72
2021/10/01 06:42:49;;;;;;;8.98;3.78;;;;;;;25.84;39.25;95918.41;4991024;28;20408;-71
2021/10/01 06:45:21;;;;;;;4.90;3.17;;;;;;;25.83;39.16;95916.16;4987636;28;20080;-72
2021/10/01 08:20:21;;;;;;;9.00;5.07;;;;;;;24.49;38.64;95911.06;4965956;28;20718;-72
2021/10/01 08:22:46;;;;;;;9.90;4.93;;;;;;;24.47;38.52;95902.63;4967019;28;20030;-72
2021/10/01 08:25:11;;;;;;;9.65;5.22;;;;;;;24.46;38.77;95906.59;4966973;28;20031;-72
2021/10/01 08:27:37;;;;;;;9.88;5.30;;;;;;;24.39;38.02;95907.84;4970768;28;20026;-73
2021/10/01 08:30:04;;;;;;;7.95;5.03;;;;;;;24.40;38.95;95908.56;4984898;28;20042;-71
2021/10/01 08:32:30;;;;;;;9.18;5.35;;;;;;;24.35;38.03;95917.50;4984485;28;20156;-73
2021/10/01 08:34:55;;;;;;;10.30;5.32;;;;;;;24.34;37.50;95902.34;4981910;28;20026;-73
2021/10/01 08:37:20;;;;;;;7.32;4.93;;;;;;;24.34;37.53;95905.09;4983885;28;20022;-72
2021/10/01 08:39:46;;;;;;;8.30;5.43;;;;;;;24.30;37.02;95893.63;4983148;28;20026;-72
2021/10/01 08:42:11;;;;;;;10.15;5.65;;;;;;;24.30;37.41;95904.53;4981844;28;20037;-72
2021/10/01 08:44:37;;;;;;;8.55;4.93;;;;;;;24.24;37.11;95901.06;4935916;28;20047;-73
2021/10/01 08:47:03;;;;;;;8.93;5.00;;;;;;;24.30;37.61;95910.00;4981551;28;20548;-73
2021/10/01 08:49:29;;;;;;;10.15;5.72;;;;;;;24.21;36.72;95902.03;4984194;28;20772;-73
2021/10/01 08:51:54;;;;;;;9.43;5.00;;;;;;;24.25;36.81;95901.81;4982223;28;20030;-73
2021/10/01 08:54:20;;;;;;;9.77;5.03;;;;;;;24.17;36.23;95890.63;4980538;28;20034;-72
2021/10/01 08:56:46;;;;;;;7.95;5.10;;;;;;;24.20;37.19;95900.56;4985843;28;20030;-73
2021/10/01 08:59:11;;;;;;;8.68;5.10;;;;;;;24.19;36.19;95904.53;4986466;28;20030;-72
2021/10/01 09:01:36;;;;;;;8.80;4.53;;;;;;;24.18;36.77;95908.50;4986371;28;20034;-72
2021/10/01 09:04:02;;;;;;;7.15;4.60;;;;;;;24.17;35.92;95901.56;4979246;28;20050;-73
2021/10/01 09:06:28;;;;;;;7.03;4.65;;;;;;;24.15;36.05;95897.81;4993415;28;20030;-73
2021/10/01 09:08:59;;;;;;;9.38;5.10;;;;;;;24.14;36.54;95908.00;5004086;28;20034;-73
2021/10/01 09:11:29;;;;;;;8.10;4.85;;;;;;;24.14;36.05;95908.00;5009977;28;20291;-71
2021/10/01 09:13:54;;;;;;;;;;;;;;;24.13;35.67;95917.41;4985313;28;20038;-72
2021/10/01 09:16:21;;;;;;;7.70;4.57;;;;;;;24.18;36.81;95913.94;4979999;28;19922;-72
2021/10/01 09:18:46;;;;;;;8.25;4.50;;;;;;;24.16;35.16;95916.44;4980733;28;20042;-72
2021/10/01 09:21:14;;;;;;;7.18;4.50;;;;;;;24.17;34.96;95907.00;4964578;28;20471;-72
2021/10/01 09:23:45;;;;;;;9.32;4.90;;;;;;;24.19;35.40;95910.00;4987346;28;20026;-72
2021/10/01 09:26:16;;;;;;;9.15;4.50;;;;;;;24.26;35.72;95904.06;4970253;28;20035;-72
2021/10/01 09:28:58;;;;;;;8.27;4.47;;;;;;;24.16;35.50;95878.22;4978011;28;20034;-76
2021/10/01 09:31:49;;;;;;;10.02;4.72;;;;;;;24.39;35.31;95902.38;4985174;28;20022;-74
2021/10/01 09:34:24;;;;;;;6.70;3.97;;;;;;;24.48;35.22;95909.56;4997465;28;20014;-75
2021/10/01 09:37:04;;;;;;;7.35;4.25;;;;;;;24.59;35.11;95898.69;4987194;28;20030;-74
2021/10/01 09:39:34;;;;;;;8.25;4.70;;;;;;;24.62;35.11;95892.19;4987564;28;20033;-75
2021/10/01 09:42:08;;;;;;;;;;;;;;;24.77;35.04;95892.69;4977599;28;20505;-75
2021/10/01 09:44:34;;;;;;;8.05;4.70;;;;;;;24.76;35.02;95881.03;4970218;28;19922;-75
2021/10/01 09:46:59;;;;;;;9.07;5.28;;;;;;;24.92;34.69;95883.75;4980496;28;20468;-75
2021/10/01 09:49:32;;;;;;;9.57;5.50;;;;;;;25.00;34.47;95890.22;4981943;28;20042;-74
2021/10/01 09:51:57;;;;;;;8.98;6.65;;;;;;;25.05;34.83;95875.81;4976266;28;20034;-72
2021/10/01 09:54:24;;;;;;;7.85;5.80;;;;;;;24.99;34.74;95855.97;4984012;28;20022;-73
2021/10/01 09:56:50;;;;;;;10.23;5.45;;;;;;;25.26;34.22;95885.22;4967659;28;20057;-73
2021/10/01 09:59:17;;;;;;;9.85;4.95;;;;;;;25.35;34.66;95893.13;5001010;28;20515;-78
2021/10/01 10:02:19;;;;;;;7.57;4.97;;;;;;;25.37;33.98;95879.72;4997349;28;20480;-75
2021/10/01 10:04:45;;;;;;;12.32;5.95;;;;;;;25.44;34.51;95879.97;4987718;28;20054;-75
2021/10/01 10:07:21;;;;;;;9.63;5.53;;;;;;;25.51;34.53;95955.28;4985008;28;20069;-76
2021/10/01 10:09:49;;;;;;;11.38;5.32;;;;;;;25.59;34.72;95874.16;4981085;28;20592;-79
2021/10/01 10:12:17;;;;;;;9.65;6.00;;;;;;;25.81;34.53;95880.34;4984116;28;20038;-72
2021/10/01 10:14:48;;;;;;;10.73;6.38;;;;;;;25.88;34.50;95880.53;4981711;28;20487;-73
2021/10/01 10:17:24;;;;;;;11.90;6.53;;;;;;;25.89;34.04;95884.78;4980674;28;20034;-73
2021/10/01 10:19:54;;;;;;;10.13;6.07;;;;;;;25.85;33.88;95870.59;4983359;28;20444;-73
2021/10/01 10:22:20;;;;;;;10.13;6.85;;;;;;;25.86;34.07;95866.63;4998948;28;20037;-73
2021/10/01 10:24:46;;;;;;;12.20;6.45;;;;;;;25.92;34.08;95870.09;4984308;28;20026;-73
2021/10/01 10:27:11;;;;;;;12.68;8.10;;;;;;;25.98;34.26;95868.06;4987983;28;20535;-72
2021/10/01 10:29:38;;;;;;;11.77;7.05;;;;;;;25.75;34.03;95844.03;4987452;28;20030;-72
2021/10/01 10:32:06;;;;;;;12.48;6.88;;;;;;;25.87;34.31;95857.19;4983615;28;20382;-73
2021/10/01 10:34:32;;;;;;;10.70;7.03;;;;;;;25.99;34.38;95868.81;4982338;28;20026;-72
2021/10/01 10:37:03;;;;;;;12.02;7.28;;;;;;;25.99;34.05;95863.31;4987637;28;20031;-73
2021/10/01 10:39:32;;;;;;;10.80;7.13;;;;;;;25.98;34.31;95873.53;4987545;28;20026;-73
2021/10/01 10:42:11;;;;;;;11.55;7.47;;;;;;;25.88;34.34;95869.59;4987303;28;20049;-73
2021/10/01 10:44:46;;;;;;;12.73;7.30;;;;;;;25.83;34.63;95867.63;4987511;28;20769;-73
2021/10/01 10:47:32;;;;;;;11.50;7.40;;;;;;;25.80;34.33;95873.38;4987596;28;20168;-73
2021/10/01 10:50:25;;;;;;;12.77;7.72;;;;;;;25.77;34.69;95868.16;4979929;28;20042;-72
2021/10/01 10:55:36;;;;;;;11.90;8.20;;;;;;;25.52;34.96;95836.41;4984366;28;20038;-72
2021/10/01 11:00:55;;;;;;;12.38;8.07;;;;;;;25.49;35.13;95832.69;4985546;28;20034;-73
2021/10/01 11:03:22;;;;;;;12.98;7.93;;;;;;;25.50;35.48;95834.19;4984632;28;20042;-72
2021/10/01 11:06:13;;;;;;;12.32;7.95;;;;;;;25.51;35.23;95841.13;4985278;28;20505;-73
2021/10/01 11:08:39;;;;;;;13.95;10.18;;;;;;;25.52;35.42;95836.41;4980949;28;20042;-72
2021/10/01 11:11:05;;;;;;;14.25;8.48;;;;;;;25.45;35.47;95853.34;4984414;28;20033;-72
2021/10/01 11:13:34;;;;;;;14.38;8.15;;;;;;;25.41;35.64;95836.44;4985178;28;20034;-72
2021/10/01 11:16:09;;;;;;;12.43;8.65;;;;;;;25.38;35.58;95837.44;4984315;28;20040;-73
2021/10/01 11:18:46;;;;;;;14.55;8.82;;;;;;;25.37;35.70;95830.50;4986750;28;20496;-71
2021/10/01 11:21:27;;;;;;;15.10;8.60;;;;;;;25.31;35.74;95833.25;4987671;28;20036;-71
2021/10/01 11:24:00;;;;;;;15.77;8.73;;;;;;;25.23;35.27;95819.84;4984055;28;20026;-71
2021/10/01 11:26:26;;;;;;;13.93;7.95;;;;;;;25.28;35.29;95822.59;4987529;28;20030;-72
2021/10/01 11:28:52;;;;;;;13.50;8.85;;;;;;;25.18;35.68;95824.09;4984378;28;20041;-72
2021/10/01 11:31:17;;;;;;;12.50;8.85;;;;;;;25.18;35.62;95813.16;4983954;28;20022;-73
2021/10/01 11:33:49;;;;;;;15.32;8.80;;;;;;;25.21;35.90;95828.56;4984975;28;20036;-72
2021/10/01 11:36:15;;;;;;;12.85;8.43;;;;;;;25.21;35.91;95823.09;4986458;28;20045;-72
2021/10/01 11:38:40;;;;;;;13.65;8.25;;;;;;;25.10;35.97;95812.19;4991394;28;20069;-73
2021/10/01 11:41:11;;;;;;;14.95;9.73;;;;;;;25.20;35.79;95816.16;4985017;28;20087;-73
2021/10/01 11:43:46;;;;;;;13.82;8.75;;;;;;;25.18;35.92;95818.63;4985079;28;20034;-72
2021/10/01 11:46:12;;;;;;;13.48;9.20;;;;;;;25.20;35.84;95805.22;4986305;28;20122;-72
2021/10/01 11:48:38;;;;;;;12.85;8.57;;;;;;;25.16;35.67;95804.72;4985981;28;20041;-72
2021/10/01 11:51:09;;;;;;;15.18;8.65;;;;;;;25.03;35.35;95883.75;4986487;28;20054;-73
2021/10/01 11:53:36;;;;;;;14.48;8.48;;;;;;;25.19;35.88;95803.72;4986811;28;20030;-72
2021/10/01 11:56:04;;;;;;;12.77;8.23;;;;;;;25.12;35.79;95809.69;4990684;28;20026;-73
2021/10/01 11:58:31;;;;;;;13.20;8.07;;;;;;;25.00;35.92;95786.38;4999472;28;20529;-73
2021/10/01 12:01:15;;;;;;;15.38;8.45;;;;;;;25.05;35.77;95788.38;5005684;28;20023;-72
2021/10/01 12:03:48;;;;;;;12.73;8.23;;;;;;;25.11;35.85;95791.06;5004159;28;20063;-72
2021/10/01 12:06:17;;;;;;;13.65;8.35;;;;;;;25.13;35.41;95794.78;4992098;28;20040;-71
2021/10/01 12:08:43;;;;;;;11.82;7.57;;;;;;;25.12;35.73;95792.56;4988320;28;20088;-73
2021/10/01 12:11:08;;;;;;;12.45;7.65;;;;;;;24.90;35.73;95771.50;4987713;28;20460;-72
2021/10/01 12:13:35;;;;;;;11.18;7.07;;;;;;;25.05;35.50;95788.38;4987995;28;20019;-72
2021/10/01 12:16:04;;;;;;;11.77;7.25;;;;;;;25.03;35.53;95796.31;4985083;28;20026;-72
2021/10/01 12:18:36;;;;;;;10.02;7.13;;;;;;;25.05;35.47;95782.91;4986556;28;20033;-72
2021/10/01 12:21:09;;;;;;;10.20;7.55;;;;;;;25.05;35.59;95793.84;4986501;28;20033;-72
2021/10/01 12:23:59;;;;;;;12.00;7.18;;;;;;;24.93;35.74;95775.94;4986744;28;20177;-73
2021/10/01 12:26:34;;;;;;;10.57;7.18;;;;;;;24.95;35.42;95784.38;4986016;28;20105;-73
2021/10/01 12:29:19;;;;;;;10.23;6.53;;;;;;;24.98;35.28;95788.09;4986472;28;20031;-73
2021/10/01 12:31:54;;;;;;;11.07;6.50;;;;;;;24.82;35.38;95770.50;4986385;28;20041;-73
2021/10/01 12:34:23;;;;;;;12.82;6.80;;;;;;;24.95;35.46;95787.13;4986020;28;20030;-73
2021/10/01 12:36:52;;;;;;;12.17;6.47;;;;;;;24.96;35.46;95780.41;4978863;28;20121;-73
2021/10/01 12:39:18;;;;;;;10.68;6.75;;;;;;;24.94;35.39;95777.41;4965941;28;20274;-72
2021/10/01 12:41:44;;;;;;;8.88;6.18;;;;;;;25.09;35.52;95772.44;4970948;28;20034;-72
2021/10/01 12:44:11;;;;;;;10.45;6.65;;;;;;;25.18;35.28;95769.41;4973797;28;20202;-72
2021/10/01 12:46:37;;;;;;;10.35;6.38;;;;;;;25.21;35.41;95773.88;4974148;28;20034;-72
2021/10/01 12:49:11;;;;;;;10.95;6.47;;;;;;;25.12;35.69;95765.97;4985679;28;20492;-73
2021/10/01 12:51:36;;;;;;;8.93;5.18;;;;;;;25.13;31.71;95751.06;4991058;28;20096;-73
2021/10/01 12:54:20;;;;;;;7.25;5.43;;;;;;;25.10;32.92;95763.00;4993261;28;20030;-79
2021/10/01 12:56:46;;;;;;;9.77;4.90;;;;;;;25.05;32.50;95766.50;5001318;28;20052;-78
2021/10/01 12:59:11;;;;;;;7.78;4.75;;;;;;;25.05;32.34;95766.50;5007289;28;20030;-79
2021/10/01 13:01:37;;;;;;;8.23;4.43;;;;;;;25.00;31.52;95763.78;5000130;28;20034;-78
2021/10/01 13:04:02;;;;;;;6.43;4.25;;;;;;;24.96;31.67;95769.47;4996744;28;20073;-79
2021/10/01 13:06:29;;;;;;;7.30;4.53;;;;;;;24.74;31.22;95751.63;4993719;28;20042;-79
2021/10/01 13:08:54;;;;;;;7.18;4.43;;;;;;;24.89;30.88;95752.84;4993498;28;20212;-78
2021/10/01 13:11:20;;;;;;;9.05;4.38;;;;;;;24.95;30.73;95757.06;4990821;28;20113;-79
2021/10/01 13:13:45;;;;;;;9.60;4.13;;;;;;;25.00;30.56;95758.31;4993105;28;20030;-79
2021/10/01 13:16:13;;;;;;;8.00;4.38;;;;;;;24.93;30.65;95754.09;4990106;28;20055;-79
2021/10/01 13:18:40;;;;;;;6.88;4.00;;;;;;;24.75;30.63;95726.56;4991500;28;20026;-79